Time;durP1;ratioP1;P1;durP2;ratioP2;P2;SDS_P1;SDS_P2;PMS_P1;PMS_P2;Temp;Humidity;BMP_temperature;BMP_pressure;BME280_temperature;BME280_humidity;BME280_pressure;Samples;Min_cycle;Max_cycle;Signal;HPM_P1;HPM_P2
2021/08/01 00:01:40;;;;;;;12.80;3.20;;;;;;;16.68;63.46;99638.60;125687;1093;22777;-58
2021/08/01 00:04:12;;;;;;;16.65;4.55;;;;;;;16.66;63.42;99644.02;125682;1093;22773;-59
2021/08/01 00:06:44;;;;;;;19.93;7.23;;;;;;;16.66;64.17;99650.42;125701;1093;22771;-59
2021/08/01 00:09:16;;;;;;;21.60;6.70;;;;;;;16.68;64.00;99650.64;125678;1093;22774;-59
2021/08/01 00:11:48;;;;;;;18.93;5.20;;;;;;;16.66;64.34;99658.11;125705;1093;22774;-59
2021/08/01 00:14:19;;;;;;;13.50;4.80;;;;;;;16.65;64.20;99648.14;125698;1091;26223;-58
2021/08/01 00:16:51;;;;;;;16.20;3.80;;;;;;;16.62;64.34;99649.97;125668;1093;22880;-60
2021/08/01 00:19:22;;;;;;;13.57;3.50;;;;;;;16.57;64.51;99655.70;125763;1093;26127;-58
2021/08/01 00:21:54;;;;;;;11.95;3.35;;;;;;;16.52;64.10;99643.20;125656;1093;22916;-58
2021/08/01 00:24:25;;;;;;;9.30;3.05;;;;;;;16.47;64.44;99638.37;125673;1093;26242;-57
2021/08/01 00:26:56;;;;;;;8.95;2.90;;;;;;;16.46;64.65;99638.91;125687;1093;22800;-59
2021/08/01 00:29:28;;;;;;;10.07;2.50;;;;;;;16.42;64.74;99635.64;125648;1093;22797;-59
2021/08/01 00:32:01;;;;;;;10.50;3.00;;;;;;;16.37;64.52;99634.42;125696;1093;22770;-58
2021/08/01 00:34:34;;;;;;;11.25;3.25;;;;;;;16.32;65.06;99643.73;125742;1093;22907;-58
2021/08/01 00:37:06;;;;;;;13.60;3.83;;;;;;;16.28;65.04;99642.50;125706;1093;22794;-59
2021/08/01 00:39:38;;;;;;;13.35;5.60;;;;;;;16.23;64.74;99629.25;125725;1093;22776;-61
2021/08/01 00:42:10;;;;;;;17.63;7.70;;;;;;;16.19;64.94;99635.19;125686;1093;22770;-59
2021/08/01 00:44:41;;;;;;;14.30;6.80;;;;;;;16.19;64.88;99623.92;125702;1093;27525;-59
2021/08/01 00:47:14;;;;;;;18.07;6.70;;;;;;;16.18;65.00;99630.84;125754;1093;22770;-58
2021/08/01 00:49:45;;;;;;;12.17;5.53;;;;;;;16.16;64.92;99628.56;125916;1092;28057;-58
2021/08/01 00:52:17;;;;;;;13.23;5.77;;;;;;;16.18;65.13;99630.84;125918;1093;22914;-58
2021/08/01 00:54:48;;;;;;;14.55;5.75;;;;;;;16.18;64.97;99628.79;125766;1093;25877;-57
2021/08/01 00:57:20;;;;;;;13.00;4.40;;;;;;;16.19;65.13;99632.38;125648;1093;27623;-58
2021/08/01 00:59:52;;;;;;;12.60;4.20;;;;;;;16.18;64.82;99628.02;125736;1093;26233;-59
2021/08/01 01:02:35;;;;;;;10.30;3.00;;;;;;;16.22;65.08;99630.55;125684;1093;24507;-57
2021/08/01 01:05:22;;;;;;;12.05;3.35;;;;;;;16.24;65.02;99630.78;125840;1093;22919;-57
2021/08/01 01:08:02;;;;;;;14.30;2.80;;;;;;;16.22;65.41;99620.06;125640;1093;22808;-59
2021/08/01 01:10:37;;;;;;;7.48;2.30;;;;;;;16.16;65.40;99625.74;125733;1093;24469;-58
2021/08/01 01:13:12;;;;;;;9.80;1.97;;;;;;;16.10;65.81;99630.69;125769;1092;22770;-59
2021/08/01 01:15:46;;;;;;;11.73;2.63;;;;;;;16.06;65.55;99615.38;125726;1093;24543;-59
2021/08/01 01:18:22;;;;;;;11.15;2.90;;;;;;;16.05;65.43;99611.83;125805;1092;22810;-59
2021/08/01 01:21:06;;;;;;;10.20;3.00;;;;;;;16.04;65.48;99609.53;125723;1093;22773;-57
2021/08/01 01:23:53;;;;;;;13.05;2.60;;;;;;;16.00;65.67;99603.44;125868;1093;22905;-58
2021/08/01 01:26:32;;;;;;;11.25;2.50;;;;;;;15.97;65.62;99601.70;125774;1093;22810;-59
2021/08/01 01:29:16;;;;;;;10.47;2.17;;;;;;;15.92;65.88;99600.48;125725;1093;22797;-59
2021/08/01 01:32:00;;;;;;;10.83;2.73;;;;;;;15.89;65.65;99607.16;125715;1093;28114;-57
2021/08/01 01:34:42;;;;;;;8.55;1.95;;;;;;;15.85;65.86;99601.06;125685;1093;22771;-57
2021/08/01 01:37:18;;;;;;;9.55;2.30;;;;;;;15.83;65.86;99608.54;125645;1093;22742;-58
2021/08/01 01:39:52;;;;;;;9.20;2.10;;;;;;;15.80;66.19;99612.41;125825;1093;24594;-58
2021/08/01 01:42:25;;;;;;;9.00;2.30;;;;;;;15.75;65.99;99604.77;125704;1093;22793;-57
2021/08/01 01:44:59;;;;;;;7.50;2.10;;;;;;;15.73;66.02;99612.98;125790;1093;22797;-58
2021/08/01 01:47:32;;;;;;;9.00;2.60;;;;;;;15.70;66.17;99614.06;125777;1092;22786;-58
2021/08/01 01:50:07;;;;;;;8.87;2.30;;;;;;;15.68;66.38;99613.83;125659;1093;22775;-59
2021/08/01 01:52:40;;;;;;;14.05;2.40;;;;;;;15.66;66.37;99607.97;125877;1093;22770;-57
2021/08/01 01:55:12;;;;;;;6.75;1.85;;;;;;;15.64;66.33;99613.36;125691;1093;22755;-59
2021/08/01 01:57:46;;;;;;;10.85;2.55;;;;;;;15.60;66.80;99616.45;125917;1093;27195;-58
2021/08/01 02:00:19;;;;;;;10.50;2.15;;;;;;;15.60;66.36;99613.64;125736;1093;22770;-59
2021/08/01 02:02:50;;;;;;;10.70;2.20;;;;;;;15.60;66.53;99615.72;125840;1093;22883;-58
2021/08/01 02:05:21;;;;;;;8.37;2.07;;;;;;;15.57;66.68;99614.72;125724;1093;22755;-58
2021/08/01 02:07:53;;;;;;;11.15;1.75;;;;;;;15.53;66.86;99621.92;125740;1093;22814;-58
2021/08/01 02:10:30;;;;;;;10.17;2.40;;;;;;;15.49;66.46;99615.83;125685;1093;22777;-59
2021/08/01 02:13:05;;;;;;;11.20;3.10;;;;;;;15.44;66.78;99611.78;125805;1093;23075;-56
2021/08/01 02:15:45;;;;;;;11.60;2.45;;;;;;;15.40;66.90;99612.05;125908;1093;27302;-57
2021/08/01 02:18:23;;;;;;;9.55;2.80;;;;;;;15.34;67.19;99614.16;125858;1092;22774;-59
2021/08/01 02:20:56;;;;;;;10.53;2.50;;;;;;;15.30;66.74;99610.88;125733;1093;22810;-59
2021/08/01 02:23:32;;;;;;;13.05;2.85;;;;;;;15.25;67.30;99608.11;125996;1093;22771;-58
2021/08/01 02:26:05;;;;;;;8.40;2.35;;;;;;;15.21;67.00;99607.64;125828;1093;24472;-54
2021/08/01 02:28:39;;;;;;;13.20;2.45;;;;;;;15.16;67.26;99606.42;125762;1092;22767;-57
2021/08/01 02:31:12;;;;;;;10.05;2.30;;;;;;;15.11;67.32;99612.85;125777;1093;22793;-59
2021/08/01 02:33:44;;;;;;;10.80;2.50;;;;;;;15.04;67.46;99610.61;125646;1093;22779;-58
2021/08/01 02:36:18;;;;;;;9.45;2.50;;;;;;;14.99;67.29;99613.48;125757;1093;24587;-60
2021/08/01 02:38:55;;;;;;;10.00;2.43;;;;;;;14.94;67.49;99608.69;125836;1093;26261;-57
2021/08/01 02:41:31;;;;;;;9.45;2.30;;;;;;;14.91;67.50;99616.11;125752;1093;22829;-57
2021/08/01 02:44:07;;;;;;;9.20;2.50;;;;;;;14.90;67.60;99616.61;125967;1092;22907;-58
2021/08/01 02:46:43;;;;;;;10.95;2.60;;;;;;;14.86;67.81;99628.14;125872;1093;22797;-57
2021/08/01 02:49:20;;;;;;;10.80;2.15;;;;;;;14.84;68.14;99627.14;125737;1093;24475;-58
2021/08/01 02:51:55;;;;;;;10.60;2.70;;;;;;;14.79;68.21;99619.53;125788;1093;22780;-58
2021/08/01 02:54:28;;;;;;;11.50;3.20;;;;;;;14.79;68.22;99614.68;125657;1093;22798;-57
2021/08/01 02:57:03;;;;;;;14.90;3.30;;;;;;;14.76;68.01;99610.09;125994;1093;22794;-57
2021/08/01 02:59:37;;;;;;;14.63;3.70;;;;;;;14.77;68.19;99611.63;125844;1093;22800;-59
2021/08/01 03:02:09;;;;;;;15.27;3.17;;;;;;;14.75;68.09;99608.58;125768;1093;22767;-59
2021/08/01 03:04:42;;;;;;;12.93;3.37;;;;;;;14.75;68.46;99611.39;125854;1093;22850;-57
2021/08/01 03:07:15;;;;;;;10.37;2.50;;;;;;;14.70;68.33;99617.80;125835;1093;22800;-57
2021/08/01 03:09:48;;;;;;;9.90;2.60;;;;;;;14.69;68.60;99613.45;125829;1093;22794;-56
2021/08/01 03:12:20;;;;;;;10.70;3.20;;;;;;;14.65;68.74;99615.05;125707;1092;24486;-59
2021/08/01 03:14:51;;;;;;;8.15;2.20;;;;;;;14.61;68.75;99615.31;125823;1093;22822;-56
2021/08/01 03:17:23;;;;;;;11.85;2.15;;;;;;;14.56;68.70;99616.13;125650;1093;22794;-58
2021/08/01 03:19:57;;;;;;;10.00;3.05;;;;;;;14.52;68.99;99629.69;125808;1093;22748;-59
2021/08/01 03:22:30;;;;;;;10.05;2.55;;;;;;;14.47;68.73;99628.44;125706;1093;22797;-58
2021/08/01 03:25:02;;;;;;;9.40;2.45;;;;;;;14.45;69.34;99625.39;125838;1093;22797;-58
2021/08/01 03:27:33;;;;;;;8.30;2.20;;;;;;;14.39;69.22;99624.66;125755;1093;22813;-57
2021/08/01 03:30:06;;;;;;;9.15;2.50;;;;;;;14.36;69.26;99630.56;125772;1093;22791;-57
2021/08/01 03:32:37;;;;;;;9.65;2.80;;;;;;;14.30;69.24;99616.54;125839;1093;22787;-59
2021/08/01 03:35:11;;;;;;;10.05;2.60;;;;;;;14.26;69.53;99615.25;125731;1093;22770;-59
2021/08/01 03:37:44;;;;;;;7.70;2.00;;;;;;;14.23;69.53;99605.08;125752;1093;22770;-57
2021/08/01 03:40:17;;;;;;;10.30;2.60;;;;;;;14.21;69.59;99599.22;125713;1093;27636;-58
2021/08/01 03:42:49;;;;;;;8.15;2.10;;;;;;;14.19;69.80;99594.13;125734;1093;22775;-58
2021/08/01 03:45:20;;;;;;;8.40;2.30;;;;;;;14.18;69.85;99605.86;125785;1093;24210;-57
2021/08/01 03:47:52;;;;;;;7.20;2.10;;;;;;;14.18;70.12;99600.25;125736;1093;22771;-57
2021/08/01 03:50:23;;;;;;;7.75;2.10;;;;;;;14.17;70.15;99607.16;125652;1093;22794;-59
2021/08/01 03:52:55;;;;;;;6.85;1.90;;;;;;;14.16;70.23;99606.39;125665;1093;22770;-59
2021/08/01 03:55:27;;;;;;;6.60;1.70;;;;;;;14.18;70.30;99612.25;125669;1093;24995;-57
2021/08/01 03:57:58;;;;;;;15.47;2.63;;;;;;;14.20;70.23;99609.68;125848;1093;27682;-58
2021/08/01 04:00:30;;;;;;;12.95;2.90;;;;;;;14.19;70.43;99607.41;125698;1093;25816;-57
2021/08/01 04:03:04;;;;;;;12.30;3.30;;;;;;;14.11;70.64;99601.55;125787;1093;26260;-59
2021/08/01 04:05:38;;;;;;;8.33;2.47;;;;;;;14.09;70.73;99598.50;125768;1093;27651;-58
2021/08/01 04:08:10;;;;;;;11.00;3.60;;;;;;;14.12;70.78;99594.67;125806;1093;22778;-55
2021/08/01 04:10:42;;;;;;;11.47;2.80;;;;;;;14.12;71.28;99589.06;125880;1093;22825;-56
2021/08/01 04:13:16;;;;;;;11.20;3.60;;;;;;;14.12;71.15;99586.25;125740;1093;22921;-56
2021/08/01 04:15:49;;;;;;;12.40;3.00;;;;;;;14.13;71.25;99590.57;125735;1093;22755;-59
2021/08/01 04:18:21;;;;;;;12.60;3.45;;;;;;;14.15;71.30;99606.91;125793;1093;25967;-60
2021/08/01 04:20:56;;;;;;;12.95;3.55;;;;;;;14.16;71.19;99612.00;125704;1093;22898;-59
2021/08/01 04:23:28;;;;;;;11.05;3.00;;;;;;;14.22;71.90;99612.73;126078;1093;26898;-60
2021/08/01 04:25:59;;;;;;;10.60;2.85;;;;;;;14.29;71.94;99605.84;125754;1092;27623;-58
2021/08/01 04:28:30;;;;;;;13.50;3.20;;;;;;;14.36;72.34;99614.45;125707;1093;22791;-58
2021/08/01 04:31:02;;;;;;;10.30;2.80;;;;;;;14.42;72.15;99609.56;125737;1093;22800;-56
2021/08/01 04:33:35;;;;;;;9.90;3.00;;;;;;;14.49;72.35;99608.25;125810;1093;27160;-57
2021/08/01 04:36:07;;;;;;;11.60;3.70;;;;;;;14.57;72.51;99615.59;125697;1093;22794;-57
2021/08/01 04:38:40;;;;;;;13.10;3.23;;;;;;;14.66;72.38;99606.09;125829;1091;22797;-57
2021/08/01 04:41:11;;;;;;;20.30;5.17;;;;;;;14.73;72.90;99608.34;125690;1093;22797;-59
2021/08/01 04:43:43;;;;;;;14.90;4.60;;;;;;;14.79;72.74;99611.09;125782;1093;22826;-58
2021/08/01 04:46:15;;;;;;;14.50;3.70;;;;;;;14.85;72.91;99609.00;125725;1093;22805;-56
2021/08/01 04:48:47;;;;;;;14.15;3.35;;;;;;;14.91;72.95;99613.30;125843;1092;22817;-59
2021/08/01 04:51:18;;;;;;;11.30;3.20;;;;;;;14.95;73.13;99608.16;126298;1093;24148;-59
2021/08/01 04:53:50;;;;;;;14.90;3.00;;;;;;;15.02;73.00;99604.01;126931;1093;22751;-59
2021/08/01 04:56:21;;;;;;;14.95;3.85;;;;;;;15.08;72.73;99599.09;125788;1093;22813;-59
2021/08/01 04:58:52;;;;;;;10.60;3.00;;;;;;;15.14;73.36;99592.13;125750;1093;22825;-60
2021/08/01 05:01:24;;;;;;;11.10;3.50;;;;;;;15.19;72.79;99580.05;125886;1093;23226;-59
2021/08/01 05:04:00;;;;;;;11.03;4.17;;;;;;;15.27;72.49;99580.99;125869;1093;22798;-61
2021/08/01 05:06:32;;;;;;;13.87;3.27;;;;;;;15.34;72.84;99577.60;125790;1093;22797;-59
2021/08/01 05:09:04;;;;;;;17.00;3.25;;;;;;;15.41;72.70;99584.70;126116;1092;22770;-56
2021/08/01 05:11:35;;;;;;;12.45;3.95;;;;;;;15.48;73.04;99572.86;125856;1093;22778;-59
2021/08/01 05:14:07;;;;;;;12.80;3.80;;;;;;;15.55;73.07;99565.89;125800;1092;22800;-60
2021/08/01 05:16:38;;;;;;;15.10;3.45;;;;;;;15.60;72.79;99565.81;125865;1093;22794;-57
2021/08/01 05:19:10;;;;;;;22.00;9.20;;;;;;;15.69;73.54;99554.20;125779;1093;22770;-55
2021/08/01 05:21:41;;;;;;;22.65;10.45;;;;;;;15.79;73.50;99551.77;125820;1093;22775;-56
2021/08/01 05:24:13;;;;;;;21.20;8.70;;;;;;;15.89;72.73;99553.67;125741;1093;22797;-59
2021/08/01 05:26:46;;;;;;;17.40;6.30;;;;;;;16.01;72.74;99557.88;125920;1093;22771;-58
2021/08/01 05:29:17;;;;;;;16.60;4.95;;;;;;;16.13;73.09;99555.66;125958;1093;22934;-59
2021/08/01 05:31:49;;;;;;;14.10;4.43;;;;;;;16.23;72.83;99553.97;125692;1093;22770;-58
2021/08/01 05:34:20;;;;;;;12.40;4.35;;;;;;;16.32;72.96;99552.83;127882;1092;22800;-59
2021/08/01 05:36:52;;;;;;;15.00;4.25;;;;;;;16.39;72.75;99541.69;125681;1093;27422;-58
2021/08/01 05:39:23;;;;;;;17.30;5.65;;;;;;;16.47;72.99;99534.13;125707;1093;22881;-60
2021/08/01 05:43:55;;;;;;;15.83;4.07;;;;;;;16.58;72.66;99522.71;126931;1093;22837;-77
2021/08/01 05:46:24;;;;;;;11.55;2.95;;;;;;;16.64;72.93;99531.06;126642;1093;22735;-77
2021/08/01 05:48:52;;;;;;;11.57;2.57;;;;;;;16.73;72.87;99531.43;126584;1093;22854;-78
2021/08/01 05:51:20;;;;;;;14.50;3.60;;;;;;;16.81;72.81;99529.49;126611;1092;22733;-77
2021/08/01 05:53:49;;;;;;;11.55;3.25;;;;;;;16.90;72.96;99528.32;126531;1093;22825;-77
2021/08/01 05:56:20;;;;;;;10.07;2.97;;;;;;;16.95;72.14;99530.27;126482;1092;22805;-77
2021/08/01 05:58:48;;;;;;;10.15;2.40;;;;;;;17.01;72.39;99516.08;126637;1092;27204;-77
2021/08/01 06:01:18;;;;;;;9.00;2.90;;;;;;;17.08;72.08;99532.34;126547;1092;22783;-77
2021/08/01 06:03:47;;;;;;;9.15;3.50;;;;;;;17.12;71.93;99515.85;126579;1093;24531;-79
2021/08/01 06:06:18;;;;;;;9.07;2.53;;;;;;;17.17;71.71;99515.00;126614;1093;26236;-77
2021/08/01 06:08:48;;;;;;;13.10;3.05;;;;;;;17.23;71.65;99513.59;126708;1093;22928;-77
2021/08/01 06:11:20;;;;;;;8.77;2.10;;;;;;;17.27;71.44;99527.36;126496;1093;22794;-77
2021/08/01 06:13:49;;;;;;;8.60;2.20;;;;;;;17.28;71.09;99529.64;126598;1093;23642;-77
2021/08/01 06:16:18;;;;;;;14.40;2.40;;;;;;;17.29;71.23;99536.81;126522;1093;22846;-77
2021/08/01 06:18:47;;;;;;;10.33;2.60;;;;;;;17.29;71.32;99536.81;126635;1093;22803;-77
2021/08/01 06:21:17;;;;;;;8.75;2.40;;;;;;;17.34;71.34;99546.47;126547;1093;25864;-78
2021/08/01 06:23:48;;;;;;;6.60;1.90;;;;;;;17.35;70.74;99545.16;126529;1093;24468;-77
2021/08/01 06:26:17;;;;;;;8.43;2.33;;;;;;;17.37;71.02;99548.96;126570;1092;22806;-78
2021/08/01 06:28:46;;;;;;;9.33;2.20;;;;;;;17.39;70.68;99554.82;126816;1093;26194;-78
2021/08/01 06:31:15;;;;;;;9.25;2.25;;;;;;;17.43;70.31;99541.14;126719;1093;22821;-76
2021/08/01 06:33:44;;;;;;;14.05;2.60;;;;;;;17.42;70.30;99538.88;126627;1092;22704;-76
2021/08/01 06:36:15;;;;;;;8.85;2.03;;;;;;;17.45;70.35;99537.77;126590;1092;22854;-77
2021/08/01 06:38:46;;;;;;;7.45;2.20;;;;;;;17.53;70.13;99535.84;126543;1092;22785;-76
2021/08/01 06:41:14;;;;;;;9.85;2.00;;;;;;;17.62;70.60;99529.77;126683;1092;22784;-76
2021/08/01 06:43:43;;;;;;;9.70;2.45;;;;;;;17.68;70.88;99539.64;126500;1090;22697;-76
2021/08/01 06:46:11;;;;;;;11.00;2.20;;;;;;;17.76;70.40;99536.90;126591;1090;22915;-77
2021/08/01 06:48:40;;;;;;;7.20;1.75;;;;;;;17.82;70.04;99543.19;126672;1090;22784;-76
2021/08/01 06:51:08;;;;;;;11.20;2.90;;;;;;;17.88;70.26;99541.00;126584;1089;22755;-76
2021/08/01 06:53:37;;;;;;;10.65;2.40;;;;;;;17.92;70.54;99532.95;126559;1090;22813;-77
2021/08/01 06:56:07;;;;;;;6.60;1.90;;;;;;;17.96;70.30;99530.55;126619;1089;25909;-77
2021/08/01 06:58:36;;;;;;;11.18;2.10;;;;;;;17.98;70.35;99530.76;126689;1090;22780;-76
2021/08/01 07:01:04;;;;;;;14.75;2.50;;;;;;;18.01;70.28;99532.50;126607;1090;26309;-76
2021/08/01 07:03:33;;;;;;;8.85;2.10;;;;;;;18.04;70.03;99528.59;126580;1090;22855;-76
2021/08/01 07:06:01;;;;;;;8.45;1.75;;;;;;;18.07;69.82;99523.89;126812;1090;22764;-76
2021/08/01 07:08:31;;;;;;;15.65;2.35;;;;;;;18.08;69.68;99537.49;126592;1090;22948;-75
2021/08/01 07:10:59;;;;;;;13.07;2.10;;;;;;;18.11;69.88;99529.97;126574;1090;24331;-76
2021/08/01 07:13:28;;;;;;;9.50;1.80;;;;;;;18.12;70.04;99539.97;126589;1089;25858;-75
2021/08/01 07:16:02;;;;;;;14.60;2.05;;;;;;;18.15;70.25;99544.50;126600;1090;22786;-77
2021/08/01 07:18:34;;;;;;;10.25;2.10;;;;;;;18.13;70.03;99539.41;126606;1089;22963;-76
2021/08/01 07:21:03;;;;;;;9.45;2.15;;;;;;;18.08;69.94;99528.25;126514;1090;22918;-76
2021/08/01 07:23:32;;;;;;;7.60;2.10;;;;;;;18.00;70.43;99533.05;126964;1090;22755;-80
2021/08/01 07:26:02;;;;;;;8.80;2.20;;;;;;;17.95;70.81;99536.75;127410;1090;22762;-78
2021/08/01 07:28:34;;;;;;;10.47;2.13;;;;;;;17.92;71.27;99541.42;127046;1088;23526;-78
2021/08/01 07:31:05;;;;;;;12.50;2.15;;;;;;;17.90;71.27;99534.83;126772;1089;26321;-80
2021/08/01 07:33:34;;;;;;;14.65;2.80;;;;;;;17.86;71.76;99535.14;127571;1090;22789;-80
2021/08/01 07:36:03;;;;;;;17.95;4.70;;;;;;;17.85;71.77;99521.58;126724;1090;25980;-78
2021/08/01 07:38:31;;;;;;;16.50;4.10;;;;;;;17.83;71.61;99518.54;126836;1088;22765;-75
2021/08/01 07:41:00;;;;;;;13.45;4.30;;;;;;;17.81;72.03;99521.92;126624;1090;22864;-77
2021/08/01 07:43:28;;;;;;;18.55;3.85;;;;;;;17.78;72.16;99517.34;126637;1088;22750;-76
2021/08/01 07:45:58;;;;;;;14.63;3.07;;;;;;;17.76;72.08;99515.08;126727;1090;22783;-78
2021/08/01 07:48:32;;;;;;;10.70;2.33;;;;;;;17.74;71.67;99512.05;126768;1090;22780;-77
2021/08/01 07:51:01;;;;;;;17.05;2.90;;;;;;;17.75;72.19;99499.44;126763;1090;22870;-77
2021/08/01 07:53:33;;;;;;;9.45;2.68;;;;;;;17.76;72.48;99495.32;126779;1090;23621;-79
2021/08/01 07:56:02;;;;;;;11.47;3.47;;;;;;;17.83;72.26;99501.59;126887;1090;24585;-76
2021/08/01 07:58:31;;;;;;;11.50;3.30;;;;;;;17.90;72.67;99498.85;126628;1089;22784;-78
2021/08/01 08:01:00;;;;;;;13.45;2.83;;;;;;;17.98;72.53;99498.95;126622;1090;22989;-77
2021/08/01 08:03:29;;;;;;;11.03;2.43;;;;;;;18.03;72.29;99484.70;126707;1090;22777;-76
2021/08/01 08:06:01;;;;;;;13.10;3.10;;;;;;;18.06;72.32;99483.61;127283;1090;31936;-76
2021/08/01 08:08:32;;;;;;;8.45;2.60;;;;;;;18.10;72.53;99486.86;127007;1093;22767;-76
2021/08/01 08:11:03;;;;;;;8.00;2.25;;;;;;;18.13;72.18;99482.16;126940;1093;22767;-75
2021/08/01 08:13:32;;;;;;;9.70;2.50;;;;;;;18.15;72.49;99493.66;126916;1093;27516;-76
2021/08/01 08:16:01;;;;;;;9.33;2.57;;;;;;;18.16;71.89;99503.66;126761;1093;22801;-76
2021/08/01 08:18:30;;;;;;;11.30;2.33;;;;;;;18.20;72.59;99512.56;126711;1093;22787;-76
2021/08/01 08:20:59;;;;;;;13.10;2.60;;;;;;;18.23;72.27;99514.30;126690;1093;23338;-76
2021/08/01 08:23:28;;;;;;;10.30;2.20;;;;;;;18.27;72.19;99517.54;126686;1092;22804;-76
2021/08/01 08:25:56;;;;;;;10.13;2.60;;;;;;;18.30;71.85;99510.77;126640;1093;22772;-76
2021/08/01 08:28:25;;;;;;;8.63;2.40;;;;;;;18.31;71.96;99513.04;126654;1093;22800;-75
2021/08/01 08:30:56;;;;;;;11.10;2.00;;;;;;;18.35;72.40;99516.28;126761;1093;22767;-76
2021/08/01 08:33:25;;;;;;;10.00;2.25;;;;;;;18.37;72.17;99521.41;126835;1092;22798;-75
2021/08/01 08:35:55;;;;;;;11.60;2.67;;;;;;;18.39;72.57;99535.74;126815;1093;27560;-76
2021/08/01 08:38:23;;;;;;;12.73;3.53;;;;;;;18.39;72.93;99519.52;126717;1092;25986;-77
2021/08/01 08:40:52;;;;;;;11.50;2.90;;;;;;;18.40;73.10;99511.81;126685;1093;23344;-77
2021/08/01 08:43:23;;;;;;;14.65;3.00;;;;;;;18.40;73.52;99523.88;126921;1093;22765;-79
2021/08/01 08:45:54;;;;;;;10.47;2.80;;;;;;;18.39;73.57;99527.27;127665;1093;23534;-79
2021/08/01 08:48:28;;;;;;;9.00;2.15;;;;;;;18.40;73.73;99521.05;127824;1092;26382;-79
2021/08/01 08:50:59;;;;;;;9.53;2.60;;;;;;;18.37;73.55;99515.75;126847;1093;25887;-77
2021/08/01 08:53:29;;;;;;;12.53;2.90;;;;;;;18.38;72.91;99511.61;126992;1093;22953;-77
2021/08/01 08:56:00;;;;;;;13.15;3.45;;;;;;;18.38;73.33;99526.50;127030;1092;26379;-77
2021/08/01 08:58:31;;;;;;;12.10;2.73;;;;;;;18.40;73.96;99534.42;126806;1093;22770;-77
2021/08/01 09:01:00;;;;;;;10.50;2.43;;;;;;;18.40;73.36;99526.70;126711;1091;22780;-76
2021/08/01 09:03:29;;;;;;;11.03;3.10;;;;;;;18.37;73.10;99536.27;126674;1093;25830;-76
2021/08/01 09:05:59;;;;;;;12.53;2.70;;;;;;;18.39;74.08;99533.66;126712;1093;22821;-76
2021/08/01 09:08:29;;;;;;;10.98;3.38;;;;;;;18.39;73.72;99535.74;126730;1093;22777;-77
2021/08/01 09:11:00;;;;;;;8.93;3.23;;;;;;;18.40;74.38;99523.11;126941;1092;23392;-78
2021/08/01 09:13:49;;;;;;;11.25;3.45;;;;;;;18.42;74.18;99523.32;126943;1093;22774;-77
2021/08/01 09:16:20;;;;;;;16.35;5.20;;;;;;;18.43;74.44;99534.13;126701;1092;22861;-77
2021/08/01 09:19:31;;;;;;;10.95;3.65;;;;;;;18.41;73.93;99541.60;126850;1093;22864;-77
2021/08/01 09:22:22;;;;;;;10.23;3.00;;;;;;;18.37;73.82;99532.70;127442;1091;22989;-77
2021/08/01 09:24:54;;;;;;;8.50;2.35;;;;;;;18.31;73.56;99534.91;127417;1091;23542;-79
2021/08/01 09:27:34;;;;;;;7.85;2.15;;;;;;;18.25;73.19;99545.59;127867;1092;22785;-80
2021/08/01 09:30:05;;;;;;;5.73;1.80;;;;;;;18.21;73.52;99551.55;127538;1092;22919;-79
2021/08/01 09:32:47;;;;;;;8.83;2.20;;;;;;;18.20;73.59;99546.46;127740;1093;22856;-77
2021/08/01 09:35:23;;;;;;;4.80;1.43;;;;;;;18.15;73.05;99524.73;126913;1092;22901;-75
2021/08/01 09:38:00;;;;;;;8.17;2.10;;;;;;;18.09;73.31;99527.70;126956;1092;23504;-77
2021/08/01 09:40:57;;;;;;;11.10;2.00;;;;;;;18.03;73.66;99526.30;127033;1093;25801;-81
2021/08/01 09:43:27;;;;;;;5.67;1.50;;;;;;;17.84;73.17;99517.22;128117;1092;22728;-78
2021/08/01 09:46:21;;;;;;;7.25;1.60;;;;;;;17.77;73.64;99498.91;126914;1093;22807;-82
2021/08/01 09:49:21;;;;;;;7.15;1.40;;;;;;;17.71;73.92;99503.92;127730;1093;22774;-77
2021/08/01 09:51:56;;;;;;;6.23;1.38;;;;;;;17.48;74.45;99503.60;126672;1093;22771;-77
2021/08/01 09:54:47;;;;;;;6.43;1.17;;;;;;;17.28;74.42;99507.06;127370;1093;22726;-78
2021/08/01 09:57:25;;;;;;;5.00;1.00;;;;;;;17.11;74.57;99503.80;126872;1093;22851;-79
2021/08/01 10:00:10;;;;;;;8.13;1.37;;;;;;;17.03;74.49;99480.38;126735;1093;22793;-78
2021/08/01 10:02:41;;;;;;;8.47;1.40;;;;;;;17.02;75.18;99483.75;126698;1092;22877;-77
2021/08/01 10:05:20;;;;;;;5.13;1.30;;;;;;;16.96;74.98;99486.68;126952;1092;22783;-77
2021/08/01 10:07:50;;;;;;;4.70;1.25;;;;;;;16.93;74.71;99482.88;126784;1093;22864;-77
2021/08/01 10:10:25;;;;;;;7.25;1.20;;;;;;;16.91;75.10;99484.72;126748;1093;23252;-77
2021/08/01 10:12:57;;;;;;;4.75;0.90;;;;;;;16.90;74.79;99481.13;127053;1092;22778;-76
2021/08/01 10:15:31;;;;;;;4.07;1.23;;;;;;;16.91;74.89;99474.20;127176;1093;22783;-77
2021/08/01 10:18:00;;;;;;;4.85;1.40;;;;;;;16.92;75.14;99464.43;126776;1093;22869;-77
2021/08/01 10:20:30;;;;;;;4.55;1.15;;;;;;;16.93;75.03;99460.32;126823;1093;23113;-78
2021/08/01 10:23:04;;;;;;;3.43;0.93;;;;;;;16.96;75.26;99470.53;128664;1092;22748;-78
2021/08/01 10:25:36;;;;;;;18.50;2.60;;;;;;;16.99;75.41;99472.25;127273;1093;22797;-77
2021/08/01 10:28:09;;;;;;;8.95;1.80;;;;;;;17.01;75.27;99470.97;127484;1093;22853;-76
2021/08/01 10:30:46;;;;;;;24.65;3.80;;;;;;;16.95;74.96;99483.09;127212;1093;22768;-76
2021/08/01 10:33:20;;;;;;;5.75;1.35;;;;;;;16.96;75.54;99487.45;126857;1092;23828;-77
2021/08/01 10:35:57;;;;;;;8.60;1.20;;;;;;;16.96;75.19;99490.27;126875;1093;26262;-77
2021/08/01 10:38:32;;;;;;;7.25;1.40;;;;;;;16.96;75.68;99492.32;126776;1093;25446;-77
2021/08/01 10:41:03;;;;;;;6.40;1.50;;;;;;;16.98;75.51;99487.66;126951;1093;22934;-77
2021/08/01 10:43:34;;;;;;;6.25;1.25;;;;;;;16.99;75.84;99500.45;127012;1093;22987;-77
2021/08/01 10:46:04;;;;;;;9.30;1.80;;;;;;;17.01;76.13;99505.54;126928;1093;22865;-77
2021/08/01 10:48:34;;;;;;;7.25;1.65;;;;;;;17.03;75.80;99499.38;126848;1093;26354;-76
2021/08/01 10:51:04;;;;;;;6.00;1.50;;;;;;;17.03;76.80;99494.48;126786;1092;22793;-78
2021/08/01 10:53:34;;;;;;;9.65;1.55;;;;;;;17.04;76.52;99487.55;126828;1092;26306;-76
2021/08/01 10:56:36;;;;;;;8.10;1.80;;;;;;;17.04;76.74;99479.09;126669;1093;22788;-78
2021/08/01 10:59:05;;;;;;;7.50;1.90;;;;;;;17.04;76.89;99470.63;126740;1093;26264;-79
2021/08/01 11:02:07;;;;;;;10.60;2.60;;;;;;;17.06;77.29;99481.36;126797;1092;24690;-78
2021/08/01 11:04:38;;;;;;;7.50;1.97;;;;;;;17.08;77.71;99475.94;126568;1093;23562;-77
2021/08/01 11:07:38;;;;;;;9.93;1.97;;;;;;;17.10;77.40;99468.45;126481;1093;22780;-76
2021/08/01 11:10:24;;;;;;;7.48;1.83;;;;;;;17.10;77.76;99464.88;126332;1093;22793;-77
2021/08/01 11:12:52;;;;;;;7.13;2.10;;;;;;;17.10;77.60;99456.41;126299;1093;22925;-76
2021/08/01 11:15:47;;;;;;;6.15;1.90;;;;;;;17.11;78.00;99447.41;126378;1093;22766;-76
2021/08/01 11:18:33;;;;;;;9.50;2.35;;;;;;;17.11;78.01;99453.05;126307;1093;26322;-76
2021/08/01 11:21:04;;;;;;;10.40;2.40;;;;;;;17.08;77.59;99451.33;126346;1093;22997;-75
2021/08/01 11:24:08;;;;;;;9.05;2.05;;;;;;;17.07;78.31;99451.88;126266;1093;22858;-75
2021/08/01 11:26:59;;;;;;;7.85;2.20;;;;;;;17.03;78.32;99463.45;126249;1093;22796;-77
2021/08/01 11:29:28;;;;;;;14.45;2.55;;;;;;;17.04;78.30;99456.53;126303;1093;26034;-76
2021/08/01 11:32:09;;;;;;;11.45;2.20;;;;;;;17.05;78.59;99440.38;126651;1093;23623;-76
2021/08/01 11:34:36;;;;;;;;;;;;;;;17.07;78.11;99446.23;126782;1092;22807;-77
2021/08/01 11:37:20;;;;;;;8.27;1.57;;;;;;;17.04;78.17;99436.02;126648;1092;21588;-75
2021/08/01 11:39:54;;;;;;;4.95;1.40;;;;;;;16.99;78.02;99444.05;126831;1093;22773;-76
2021/08/01 11:42:28;;;;;;;7.50;1.70;;;;;;;16.95;77.80;99454.90;126651;1093;26088;-76
2021/08/01 11:45:11;;;;;;;8.30;1.50;;;;;;;16.94;78.09;99456.22;126612;1093;23017;-76
2021/08/01 11:47:44;;;;;;;5.25;1.55;;;;;;;16.95;78.09;99454.90;126613;1092;22797;-75
2021/08/01 11:50:16;;;;;;;6.47;1.53;;;;;;;16.98;78.13;99453.06;126609;1092;22768;-76
2021/08/01 11:52:46;;;;;;;6.20;1.53;;;;;;;16.96;78.14;99450.80;126699;1092;22882;-76